Wetterdaten: Woche 27.07.15 - 02.08.15 (KW31)
Datum Zeit Temp. A. Mod.Schuppen Waschkche Feuchte A. Luftdruck Regen Wind Richtung Sonnenschein Helligkeit Solar
27.07.2015 00:00 15,5 C 14,1 C 17,9 C 72 % 1002,6 hPa 0,0 l/m 25,9 km/h (4 Bft) S 0,00 h 0 lux 0 W/m
27.07.2015 01:00 14,2 C 13,2 C 17,6 C 82 % 1001,9 hPa 0,7 l/m 21,3 km/h (4 Bft) S 0,00 h 0 lux 0 W/m
27.07.2015 02:00 14,1 C 13,3 C 17,4 C 85 % 1000,9 hPa 0,0 l/m 16,1 km/h (3 Bft) S-SO 0,00 h 0 lux 0 W/m
27.07.2015 03:00 14,4 C 13,5 C 17,4 C 84 % 1000,6 hPa 0,0 l/m 16,2 km/h (3 Bft) S-SO 0,00 h 0 lux 0 W/m
27.07.2015 04:00 14,7 C 14,0 C 17,4 C 84 % 999,9 hPa 0,0 l/m 14,5 km/h (3 Bft) S 0,00 h 0 lux 0 W/m
27.07.2015 05:00 14,7 C 13,9 C 17,4 C 85 % 999,9 hPa 0,4 l/m 13,8 km/h (3 Bft) S 0,00 h 180 lux 0 W/m
27.07.2015 06:00 14,8 C 14,2 C 17,3 C 87 % 999,9 hPa 0,0 l/m 13,7 km/h (3 Bft) S 0,00 h 2,76 klux 19 W/m
27.07.2015 07:00 15,1 C 15,5 C 17,4 C 87 % 999,8 hPa 0,0 l/m 14,8 km/h (3 Bft) S 0,00 h 6,88 klux 47 W/m
27.07.2015 08:00 15,7 C 18,1 C 17,5 C 85 % 999,8 hPa 0,0 l/m 21,0 km/h (4 Bft) S-SW 0,00 h 14,2 klux 97 W/m
27.07.2015 09:00 16,6 C 19,7 C 17,7 C 81 % 999,8 hPa 0,0 l/m 29,0 km/h (5 Bft) SW 0,17 h 26,1 klux 179 W/m
27.07.2015 10:00 16,9 C 19,0 C 17,8 C 79 % 999,8 hPa 0,0 l/m 37,1 km/h (5 Bft) SW 0,00 h 20,2 klux 138 W/m
27.07.2015 11:00 16,9 C 20,6 C 17,8 C 80 % 1000,2 hPa 0,4 l/m 33,8 km/h (5 Bft) SW 0,00 h 30,4 klux 208 W/m
27.07.2015 12:00 17,1 C 18,1 C 18,0 C 79 % 1000,4 hPa 0,0 l/m 36,7 km/h (5 Bft) SW 0,00 h 29,5 klux 202 W/m
27.07.2015 13:00 17,8 C 21,7 C 18,2 C 76 % 1000,8 hPa 0,0 l/m 40,0 km/h (6 Bft) SW 0,00 h 33,8 klux 231 W/m
27.07.2015 14:00 17,8 C 20,9 C 18,3 C 77 % 1000,8 hPa 0,0 l/m 38,5 km/h (6 Bft) SW 0,10 h 41,8 klux 286 W/m
27.07.2015 15:00 20,0 C 27,0 C 19,1 C 68 % 1000,8 hPa 0,0 l/m 40,3 km/h (6 Bft) SW 0,42 h 52,7 klux 361 W/m
27.07.2015 16:00 20,1 C 24,6 C 19,6 C 66 % 1000,8 hPa 0,0 l/m 38,8 km/h (6 Bft) W-SW 0,23 h 44,1 klux 302 W/m
27.07.2015 17:00 20,8 C 25,2 C 20,1 C 60 % 1001,5 hPa 0,0 l/m 46,1 km/h (6 Bft) W-SW 0,23 h 47,4 klux 324 W/m
27.07.2015 18:00 21,1 C 25,8 C 20,3 C 59 % 1001,8 hPa 0,0 l/m 42,3 km/h (6 Bft) W-SW 0,75 h 47,7 klux 327 W/m
27.07.2015 19:00 20,4 C 22,3 C 20,3 C 64 % 1001,8 hPa 0,4 l/m 34,9 km/h (5 Bft) W-SW 0,73 h 28,7 klux 196 W/m
27.07.2015 20:00 18,9 C 18,5 C 20,1 C 71 % 1001,9 hPa 0,0 l/m 33,2 km/h (5 Bft) SW 0,57 h 11,3 klux 77 W/m
27.07.2015 21:00 17,9 C 16,9 C 19,9 C 73 % 1002,8 hPa 0,0 l/m 33,2 km/h (5 Bft) W-SW 0,35 h 1,28 klux 19 W/m
27.07.2015 22:00 16,8 C 15,0 C 19,7 C 75 % 1002,8 hPa 0,0 l/m 26,5 km/h (4 Bft) SW 0,00 h 16 lux 0 W/m
27.07.2015 23:00 16,3 C 14,6 C 19,5 C 70 % 1003,0 hPa 0,0 l/m 26,8 km/h (4 Bft) W-SW 0,00 h 0 lux 0 W/m
28.07.2015 00:00 16,3 C 15,5 C 19,2 C 64 % 1003,8 hPa 0,0 l/m 33,9 km/h (5 Bft) W-SW 0,00 h 0 lux 0 W/m
28.07.2015 01:00 15,5 C 14,5 C 19,0 C 66 % 1003,9 hPa 0,0 l/m 27,4 km/h (5 Bft) SW 0,00 h 0 lux 0 W/m
28.07.2015 02:00 14,5 C 12,5 C 18,9 C 70 % 1003,9 hPa 0,0 l/m 24,6 km/h (4 Bft) SW 0,00 h 0 lux 0 W/m
28.07.2015 03:00 14,0 C 12,2 C 18,8 C 72 % 1003,9 hPa 0,0 l/m 26,7 km/h (4 Bft) SW 0,00 h 200 klux 0 W/m
28.07.2015 04:00 13,5 C 11,5 C 18,6 C 74 % 1003,1 hPa 0,0 l/m 26,1 km/h (4 Bft) SW 0,00 h 200 klux 0 W/m
28.07.2015 05:00 13,0 C 10,9 C 18,5 C 76 % 1003,8 hPa 0,0 l/m 24,6 km/h (4 Bft) SW 0,00 h 28,8 klux 0 W/m
28.07.2015 06:00 13,4 C 12,4 C 18,4 C 74 % 1003,9 hPa 0,0 l/m 29,4 km/h (5 Bft) SW 0,00 h 3,48 klux 24 W/m
28.07.2015 07:00 14,4 C 14,8 C 18,2 C 73 % 1003,9 hPa 0,0 l/m 37,0 km/h (5 Bft) SW 0,00 h 7,65 klux 52 W/m
28.07.2015 08:00 13,9 C 14,4 C 18,2 C 81 % 1004,4 hPa 0,0 l/m 28,7 km/h (5 Bft) SW 0,08 h 29,8 klux 204 W/m
28.07.2015 09:00 15,0 C 17,0 C 18,1 C 76 % 1004,9 hPa 0,0 l/m 33,2 km/h (5 Bft) SW 0,00 h 17,2 klux 118 W/m
28.07.2015 10:00 16,9 C 22,7 C 18,1 C 68 % 1004,8 hPa 0,0 l/m 36,6 km/h (5 Bft) SW 0,75 h 65,8 klux 450 W/m
28.07.2015 11:00 18,2 C 25,8 C 18,3 C 62 % 1004,8 hPa 0,0 l/m 44,1 km/h (6 Bft) W-SW 0,42 h 72,7 klux 497 W/m
28.07.2015 12:00 17,6 C 22,7 C 18,4 C 64 % 1005,6 hPa 0,0 l/m 41,6 km/h (6 Bft) SW 0,17 h 48,3 klux 330 W/m
28.07.2015 13:00 17,2 C 24,8 C 18,4 C 69 % 1005,8 hPa 0,0 l/m 37,1 km/h (5 Bft) SW 0,27 h 66,2 klux 453 W/m
28.07.2015 14:00 18,0 C 24,2 C 18,4 C 62 % 1005,8 hPa 0,0 l/m 45,9 km/h (6 Bft) SW 0,23 h 67,9 klux 465 W/m
28.07.2015 15:00 18,8 C 25,8 C 18,7 C 58 % 1005,8 hPa 0,0 l/m 41,9 km/h (6 Bft) W-SW 0,50 h 57,7 klux 394 W/m
28.07.2015 16:00 18,0 C 19,9 C 18,8 C 59 % 1005,8 hPa 0,0 l/m 43,6 km/h (6 Bft) W-SW 0,08 h 36,0 klux 246 W/m
28.07.2015 17:00 18,1 C 20,9 C 18,7 C 61 % 1005,8 hPa 0,0 l/m 33,9 km/h (5 Bft) W-SW 0,17 h 26,6 klux 182 W/m
28.07.2015 18:00 18,3 C 20,5 C 18,8 C 58 % 1005,8 hPa 0,0 l/m 38,8 km/h (6 Bft) W-SW 0,00 h 19,6 klux 134 W/m
28.07.2015 19:00 17,8 C 18,4 C 18,8 C 58 % 1006,2 hPa 0,0 l/m 29,8 km/h (5 Bft) W-SW 0,00 h 10,0 klux 68 W/m
28.07.2015 20:00 17,4 C 17,1 C 18,8 C 58 % 1006,4 hPa 0,0 l/m 30,2 km/h (5 Bft) W-SW 0,00 h 6,79 klux 46 W/m
28.07.2015 21:00 16,4 C 14,8 C 18,6 C 56 % 1006,9 hPa 0,0 l/m 30,2 km/h (5 Bft) SW 0,08 h 1,19 klux 11 W/m
28.07.2015 22:00 15,4 C 13,1 C 18,5 C 60 % 1006,9 hPa 0,0 l/m 24,3 km/h (4 Bft) SW 0,00 h 35 lux 0 W/m
28.07.2015 23:00 14,6 C 12,4 C 18,4 C 64 % 1006,9 hPa 0,0 l/m 25,6 km/h (4 Bft) SW 0,00 h 6,11 klux 0 W/m
29.07.2015 00:00 14,0 C 11,8 C 18,2 C 66 % 1007,4 hPa 0,0 l/m 25,4 km/h (4 Bft) SW 0,00 h 1,53 klux 0 W/m
29.07.2015 01:00 13,6 C 11,8 C 18,0 C 66 % 1007,7 hPa 0,0 l/m 29,4 km/h (5 Bft) SW 0,00 h 200 klux 0 W/m
29.07.2015 02:00 13,5 C 12,0 C 17,8 C 68 % 1007,7 hPa 0,0 l/m 29,3 km/h (5 Bft) SW 0,00 h 200 klux 0 W/m
29.07.2015 03:00 13,1 C 11,7 C 17,6 C 73 % 1007,6 hPa 0,0 l/m 32,5 km/h (5 Bft) SW 0,00 h 0 lux 0 W/m
29.07.2015 04:00 13,3 C 12,6 C 17,5 C 75 % 1006,9 hPa 0,0 l/m 32,9 km/h (5 Bft) SW 0,00 h 15,4 klux 0 W/m
29.07.2015 05:00 13,1 C 11,8 C 17,5 C 76 % 1006,9 hPa 0,0 l/m 26,5 km/h (4 Bft) SW 0,00 h 33,5 klux 0 W/m
29.07.2015 06:00 12,9 C 11,8 C 17,5 C 77 % 1006,9 hPa 0,0 l/m 24,0 km/h (4 Bft) SW 0,00 h 3,78 klux 26 W/m
29.07.2015 07:00 13,0 C 13,5 C 17,3 C 78 % 1006,9 hPa 0,0 l/m 28,2 km/h (5 Bft) SW 0,18 h 10,2 klux 70 W/m
29.07.2015 08:00 13,7 C 15,8 C 17,3 C 76 % 1006,9 hPa 0,0 l/m 28,0 km/h (5 Bft) SW 0,35 h 37,8 klux 258 W/m
29.07.2015 09:00 14,9 C 19,4 C 17,3 C 74 % 1006,9 hPa 1,4 l/m 26,4 km/h (4 Bft) SW 0,40 h 48,5 klux 332 W/m
29.07.2015 10:00 14,8 C 19,4 C 17,3 C 78 % 1006,9 hPa 0,4 l/m 25,8 km/h (4 Bft) SW 0,35 h 56,4 klux 386 W/m
29.07.2015 11:00 17,0 C 26,9 C 17,5 C 65 % 1006,8 hPa 0,0 l/m 35,3 km/h (5 Bft) SW 0,75 h 79,0 klux 540 W/m
29.07.2015 12:00 14,9 C 21,6 C 17,5 C 68 % 1007,4 hPa 1,4 l/m 37,2 km/h (5 Bft) NW 0,57 h 71,7 klux 491 W/m
29.07.2015 13:00 15,0 C 27,5 C 17,5 C 69 % 1007,9 hPa 0,0 l/m 32,5 km/h (5 Bft) W 0,58 h 79,6 klux 544 W/m
29.07.2015 14:00 14,1 C 20,5 C 17,4 C 74 % 1007,9 hPa 0,4 l/m 31,2 km/h (5 Bft) W-SW 0,32 h 57,2 klux 391 W/m
29.07.2015 15:00 15,5 C 20,5 C 17,5 C 67 % 1008,0 hPa 1,1 l/m 25,8 km/h (4 Bft) W-SW 0,00 h 24,7 klux 169 W/m
29.07.2015 16:00 16,4 C 27,6 C 17,8 C 72 % 1007,9 hPa 0,0 l/m 23,7 km/h (4 Bft) W 0,82 h 75,2 klux 514 W/m
29.07.2015 17:00 18,2 C 25,5 C 18,5 C 56 % 1008,8 hPa 0,4 l/m 38,1 km/h (6 Bft) W 0,67 h 54,3 klux 372 W/m
29.07.2015 18:00 17,6 C 20,2 C 18,8 C 56 % 1008,9 hPa 0,0 l/m 32,2 km/h (5 Bft) W 0,27 h 19,4 klux 132 W/m
29.07.2015 19:00 16,4 C 17,1 C 18,6 C 62 % 1009,9 hPa 0,0 l/m 31,2 km/h (5 Bft) W 0,07 h 13,5 klux 93 W/m
29.07.2015 20:00 15,3 C 15,2 C 18,3 C 65 % 1010,7 hPa 0,0 l/m 31,4 km/h (5 Bft) W 0,40 h 25,1 klux 172 W/m
29.07.2015 21:00 14,3 C 12,7 C 18,0 C 72 % 1011,2 hPa 0,0 l/m 19,0 km/h (3 Bft) W 0,00 h 1,64 klux 12 W/m
29.07.2015 22:00 13,8 C 11,8 C 17,8 C 75 % 1011,9 hPa 0,0 l/m 17,4 km/h (3 Bft) W-SW 0,00 h 27 lux 0 W/m
29.07.2015 23:00 13,1 C 10,5 C 17,7 C 78 % 1011,9 hPa 0,0 l/m 16,3 km/h (3 Bft) W 0,00 h 355 lux 0 W/m
30.07.2015 00:00 12,6 C 10,1 C 17,5 C 79 % 1011,9 hPa 0,0 l/m 16,8 km/h (3 Bft) SW 0,00 h 200 klux 0 W/m
30.07.2015 01:00 12,0 C 9,7 C 17,3 C 81 % 1012,0 hPa 0,0 l/m 14,6 km/h (3 Bft) SW 0,00 h 200 klux 0 W/m
30.07.2015 02:00 11,9 C 9,4 C 17,2 C 82 % 1012,0 hPa 0,0 l/m 13,6 km/h (3 Bft) W-SW 0,00 h 0 lux 0 W/m
30.07.2015 03:00 11,5 C 9,2 C 17,0 C 83 % 1012,1 hPa 0,0 l/m 11,2 km/h (2 Bft) SW 0,00 h 5,04 klux 0 W/m
30.07.2015 04:00 11,6 C 9,7 C 16,9 C 82 % 1012,4 hPa 0,0 l/m 10,3 km/h (2 Bft) SW 0,00 h 102 klux 0 W/m
30.07.2015 05:00 11,3 C 9,1 C 16,8 C 83 % 1013,0 hPa 0,0 l/m 6,6 km/h (2 Bft) SW 0,00 h 26,5 klux 0 W/m
30.07.2015 06:00 11,5 C 10,2 C 16,8 C 84 % 1013,0 hPa 0,0 l/m 8,3 km/h (2 Bft) SW 0,00 h 2,63 klux 18 W/m
30.07.2015 07:00 12,0 C 11,5 C 16,7 C 83 % 1013,3 hPa 0,0 l/m 13,7 km/h (3 Bft) SW 0,75 h 20,4 klux 140 W/m
30.07.2015 08:00 14,8 C 20,8 C 16,6 C 75 % 1013,9 hPa 0,0 l/m 13,2 km/h (3 Bft) SW 0,92 h 38,3 klux 262 W/m
30.07.2015 09:00 15,4 C 24,0 C 16,7 C 73 % 1013,9 hPa 0,0 l/m 18,3 km/h (3 Bft) W-SW 0,67 h 48,6 klux 332 W/m
30.07.2015 10:00 15,9 C 24,2 C 16,8 C 68 % 1013,9 hPa 0,0 l/m 20,2 km/h (4 Bft) W 0,42 h 58,4 klux 399 W/m
30.07.2015 11:00 17,6 C 32,9 C 17,0 C 63 % 1013,9 hPa 0,0 l/m 23,0 km/h (4 Bft) W-SW 0,75 h 82,0 klux 561 W/m
30.07.2015 12:00 18,2 C 32,5 C 17,3 C 57 % 1014,4 hPa 0,0 l/m 22,8 km/h (4 Bft) W-SW 0,83 h 80,8 klux 553 W/m
30.07.2015 13:00 19,3 C 33,0 C 17,5 C 53 % 1014,2 hPa 0,0 l/m 23,8 km/h (4 Bft) W 0,50 h 74,6 klux 510 W/m
30.07.2015 14:00 16,1 C 23,9 C 17,7 C 66 % 1014,9 hPa 0,0 l/m 23,4 km/h (4 Bft) NW 0,17 h 51,4 klux 351 W/m
30.07.2015 15:00 16,3 C 24,6 C 17,6 C 65 % 1014,9 hPa 0,0 l/m 16,4 km/h (3 Bft) W-NW 0,25 h 56,6 klux 387 W/m
30.07.2015 16:00 18,2 C 31,8 C 17,9 C 58 % 1015,5 hPa 0,0 l/m 14,6 km/h (3 Bft) W 0,67 h 67,1 klux 459 W/m
30.07.2015 17:00 16,8 C 18,1 C 18,2 C 66 % 1015,8 hPa 0,4 l/m 8,7 km/h (2 Bft) NW 0,08 h 8,25 klux 56 W/m
30.07.2015 18:00 15,1 C 14,6 C 18,0 C 70 % 1015,9 hPa 0,4 l/m 15,7 km/h (3 Bft) NW 0,00 h 13,5 klux 92 W/m
30.07.2015 19:00 15,1 C 16,6 C 17,8 C 73 % 1016,1 hPa 0,0 l/m 11,1 km/h (2 Bft) W-NW 0,00 h 11,0 klux 75 W/m
30.07.2015 20:00 15,0 C 14,6 C 17,8 C 77 % 1016,9 hPa 0,0 l/m 11,6 km/h (2 Bft) W 0,00 h 1,68 klux 11 W/m
30.07.2015 21:00 14,8 C 13,6 C 17,7 C 79 % 1017,4 hPa 0,0 l/m 13,1 km/h (3 Bft) W 0,00 h 237 lux 4 W/m
30.07.2015 22:00 14,2 C 12,4 C 17,6 C 79 % 1018,0 hPa 0,0 l/m 10,5 km/h (2 Bft) W-NW 0,00 h 13 lux 0 W/m
30.07.2015 23:00 13,9 C 11,3 C 17,6 C 73 % 1018,2 hPa 0,0 l/m 9,1 km/h (2 Bft) NW 0,00 h 0 lux 0 W/m
31.07.2015 00:00 13,0 C 9,6 C 17,6 C 72 % 1019,0 hPa 0,0 l/m 3,6 km/h (1 Bft) W-NW 0,00 h 0 lux 0 W/m
31.07.2015 01:00 11,9 C 8,3 C 17,6 C 75 % 1019,0 hPa 0,0 l/m 4,7 km/h (1 Bft) W-NW 0,00 h 200 klux 0 W/m
31.07.2015 02:00 10,9 C 7,4 C 17,5 C 78 % 1019,0 hPa 0,0 l/m 3,2 km/h (1 Bft) W-NW 0,00 h 0 lux 0 W/m
31.07.2015 03:00 9,5 C 5,9 C 17,4 C 80 % 1019,0 hPa 0,0 l/m 0,0 km/h (0 Bft) N 0,00 h 0 lux 0 W/m
31.07.2015 04:00 8,9 C 5,7 C 17,4 C 82 % 1019,8 hPa 0,0 l/m 0,0 km/h (0 Bft) N 0,00 h 200 klux 0 W/m
31.07.2015 05:00 8,5 C 5,5 C 17,3 C 83 % 1019,1 hPa 0,0 l/m 0,0 km/h (0 Bft) N 0,00 h 50,2 klux 0 W/m
31.07.2015 06:00 8,3 C 5,1 C 17,2 C 84 % 1020,0 hPa 0,0 l/m 0,0 km/h (0 Bft) N 0,08 h 3,54 klux 24 W/m
31.07.2015 07:00 9,4 C 7,7 C 17,1 C 86 % 1020,0 hPa 0,0 l/m 0,1 km/h (0 Bft) N 0,92 h 23,3 klux 159 W/m
31.07.2015 08:00 11,9 C 14,2 C 17,0 C 79 % 1020,3 hPa 0,0 l/m 2,8 km/h (1 Bft) W 1,00 h 57,3 klux 392 W/m
31.07.2015 09:00 13,1 C 14,3 C 16,9 C 72 % 1020,1 hPa 0,0 l/m 4,3 km/h (1 Bft) N-NO 0,07 h 31,2 klux 214 W/m
31.07.2015 10:00 14,9 C 26,2 C 16,8 C 65 % 1019,9 hPa 0,0 l/m 2,7 km/h (1 Bft) N 0,58 h 55,6 klux 380 W/m
31.07.2015 11:00 16,7 C 38,0 C 16,8 C 58 % 1019,9 hPa 0,0 l/m 2,0 km/h (1 Bft) NW 0,65 h 70,9 klux 485 W/m
31.07.2015 12:00 18,3 C 44,5 C 16,9 C 51 % 1019,9 hPa 0,0 l/m 7,5 km/h (2 Bft) NW 0,93 h 91,8 klux 628 W/m
31.07.2015 13:00 19,4 C 47,0 C 17,1 C 46 % 1019,5 hPa 0,0 l/m 7,0 km/h (2 Bft) W-NW 1,00 h 105 klux 716 W/m
31.07.2015 14:00 20,3 C 42,7 C 17,5 C 43 % 1018,9 hPa 0,0 l/m 11,7 km/h (2 Bft) NO 0,75 h 82,6 klux 565 W/m
31.07.2015 15:00 21,2 C 45,5 C 18,0 C 38 % 1018,2 hPa 0,0 l/m 10,4 km/h (2 Bft) N-NO 1,00 h 93,3 klux 638 W/m
31.07.2015 16:00 21,9 C 41,7 C 18,6 C 36 % 1017,8 hPa 0,0 l/m 10,6 km/h (2 Bft) N 1,00 h 79,0 klux 540 W/m
31.07.2015 17:00 21,7 C 36,1 C 19,0 C 37 % 1017,2 hPa 0,0 l/m 10,4 km/h (2 Bft) NO 0,92 h 62,0 klux 424 W/m
31.07.2015 18:00 21,3 C 30,8 C 19,2 C 36 % 1016,8 hPa 0,0 l/m 9,4 km/h (2 Bft) O 0,67 h 42,0 klux 287 W/m
31.07.2015 19:00 20,9 C 25,6 C 19,1 C 38 % 1016,3 hPa 0,0 l/m 13,1 km/h (3 Bft) N-NO 1,00 h 28,1 klux 192 W/m
31.07.2015 20:00 19,4 C 18,9 C 18,9 C 43 % 1015,9 hPa 0,0 l/m 12,4 km/h (2 Bft) O 0,67 h 10,1 klux 69 W/m
31.07.2015 21:00 17,4 C 13,9 C 18,8 C 51 % 1015,9 hPa 0,0 l/m 10,2 km/h (2 Bft) O 0,17 h 787 lux 14 W/m
31.07.2015 22:00 16,3 C 12,3 C 18,6 C 54 % 1015,9 hPa 0,0 l/m 10,4 km/h (2 Bft) NO 0,00 h 21 lux 0 W/m
31.07.2015 23:00 15,7 C 11,8 C 18,4 C 56 % 1015,9 hPa 0,0 l/m 12,2 km/h (2 Bft) NO 0,00 h 0 lux 0 W/m
01.08.2015 00:00 15,4 C 12,5 C 18,2 C 58 % 1015,9 hPa 0,0 l/m 10,6 km/h (2 Bft) NO 0,00 h 0 lux 0 W/m
01.08.2015 01:00 15,4 C 12,8 C 18,1 C 57 % 1015,9 hPa 0,0 l/m 17,9 km/h (3 Bft) O-NO 0,00 h 0 lux 0 W/m
01.08.2015 02:00 15,0 C 12,4 C 18,0 C 57 % 1015,8 hPa 0,0 l/m 12,8 km/h (3 Bft) O 0,00 h 0 lux 0 W/m
01.08.2015 03:00 14,3 C 11,5 C 17,9 C 61 % 1014,9 hPa 0,0 l/m 5,5 km/h (2 Bft) NO 0,00 h 0 lux 0 W/m
01.08.2015 04:00 13,6 C 10,8 C 17,8 C 63 % 1014,9 hPa 0,0 l/m 4,7 km/h (1 Bft) O 0,00 h 8 lux 0 W/m
01.08.2015 05:00 13,1 C 10,2 C 17,7 C 65 % 1015,0 hPa 0,0 l/m 4,3 km/h (1 Bft) O 0,00 h 100 lux 0 W/m
01.08.2015 06:00 12,2 C 9,0 C 17,6 C 68 % 1015,0 hPa 0,0 l/m 1,0 km/h (0 Bft) O-NO 0,00 h 2,39 klux 16 W/m
01.08.2015 07:00 12,4 C 11,0 C 17,4 C 72 % 1015,0 hPa 0,0 l/m 3,8 km/h (1 Bft) NO 1,00 h 22,8 klux 156 W/m
01.08.2015 08:00 15,1 C 20,5 C 17,4 C 64 % 1014,9 hPa 0,0 l/m 4,4 km/h (1 Bft) NO 1,07 h 39,9 klux 273 W/m
01.08.2015 09:00 17,3 C 30,0 C 17,6 C 58 % 1014,9 hPa 0,0 l/m 6,5 km/h (2 Bft) N-NO 0,93 h 58,3 klux 399 W/m
01.08.2015 10:00 19,8 C 37,4 C 17,8 C 50 % 1014,8 hPa 0,0 l/m 7,7 km/h (2 Bft) NO 1,00 h 70,5 klux 482 W/m
01.08.2015 11:00 21,6 C 40,9 C 18,3 C 43 % 1014,6 hPa 0,0 l/m 13,5 km/h (3 Bft) N-NO 1,00 h 82,6 klux 565 W/m
01.08.2015 12:00 23,0 C 43,7 C 18,9 C 39 % 1014,1 hPa 0,0 l/m 12,5 km/h (2 Bft) N 1,07 h 88,0 klux 602 W/m
01.08.2015 13:00 24,4 C 48,0 C 19,5 C 36 % 1014,3 hPa 0,0 l/m 8,6 km/h (2 Bft) NO 0,93 h 93,3 klux 639 W/m
01.08.2015 14:00 25,3 C 48,2 C 20,1 C 35 % 1013,7 hPa 0,0 l/m 8,5 km/h (2 Bft) N 1,00 h 92,7 klux 634 W/m
01.08.2015 15:00 25,5 C 44,4 C 20,9 C 34 % 1013,7 hPa 0,0 l/m 10,9 km/h (2 Bft) W-NW 0,92 h 80,0 klux 547 W/m
01.08.2015 16:00 24,6 C 34,6 C 22,0 C 37 % 1013,8 hPa 0,0 l/m 15,7 km/h (3 Bft) W-NW 0,58 h 61,7 klux 422 W/m
01.08.2015 17:00 25,1 C 36,2 C 22,3 C 36 % 1013,7 hPa 0,0 l/m 12,6 km/h (3 Bft) W 0,83 h 56,8 klux 388 W/m
01.08.2015 18:00 24,9 C 32,7 C 22,8 C 35 % 1013,8 hPa 0,0 l/m 16,1 km/h (3 Bft) W-NW 1,00 h 50,2 klux 343 W/m
01.08.2015 19:00 24,5 C 27,6 C 22,8 C 37 % 1014,6 hPa 0,0 l/m 13,3 km/h (3 Bft) NW 0,98 h 29,4 klux 201 W/m
01.08.2015 20:00 22,5 C 20,8 C 22,0 C 43 % 1015,0 hPa 0,0 l/m 13,3 km/h (3 Bft) N-NO 0,08 h 5,14 klux 35 W/m
01.08.2015 21:00 20,5 C 18,0 C 21,3 C 49 % 1015,8 hPa 0,0 l/m 11,0 km/h (2 Bft) N-NO 0,17 h 609 lux 12 W/m
01.08.2015 22:00 19,4 C 16,4 C 21,0 C 55 % 1016,8 hPa 0,0 l/m 7,7 km/h (2 Bft) N-NO 0,00 h 15 lux 0 W/m
01.08.2015 23:00 17,8 C 14,1 C 20,7 C 60 % 1016,9 hPa 0,0 l/m 2,7 km/h (1 Bft) N-NO 0,00 h 0 lux 0 W/m
02.08.2015 00:00 16,4 C 12,9 C 20,5 C 65 % 1017,4 hPa 0,0 l/m 4,0 km/h (1 Bft) N 0,00 h 8 lux 0 W/m
02.08.2015 01:00 14,9 C 11,1 C 20,3 C 69 % 1017,9 hPa 0,0 l/m 1,2 km/h (1 Bft) N-NO 0,00 h 0 lux 0 W/m
02.08.2015 02:00 14,0 C 10,3 C 20,0 C 72 % 1018,0 hPa 0,0 l/m 0,0 km/h (0 Bft) N 0,00 h 8 lux 0 W/m
02.08.2015 03:00 13,5 C 10,3 C 19,8 C 74 % 1018,0 hPa 0,0 l/m 1,1 km/h (1 Bft) N 0,00 h 0 lux 0 W/m
02.08.2015 04:00 13,7 C 10,6 C 19,6 C 76 % 1018,0 hPa 0,0 l/m 3,9 km/h (1 Bft) N 0,00 h 0 lux 0 W/m
02.08.2015 05:00 12,6 C 9,3 C 19,4 C 76 % 1018,9 hPa 0,0 l/m 0,7 km/h (0 Bft) N 0,00 h 247 lux 0 W/m
02.08.2015 06:00 12,0 C 9,1 C 19,1 C 79 % 1019,0 hPa 0,0 l/m 0,0 km/h (0 Bft) N 0,08 h 3,60 klux 25 W/m
02.08.2015 07:00 13,1 C 11,1 C 18,9 C 80 % 1019,0 hPa 0,0 l/m 0,0 km/h (0 Bft) N 0,92 h 20,9 klux 143 W/m
02.08.2015 08:00 16,2 C 20,0 C 18,9 C 73 % 1019,1 hPa 0,0 l/m 0,2 km/h (0 Bft) SO 1,00 h 41,4 klux 283 W/m
02.08.2015 09:00 20,2 C 33,5 C 19,1 C 60 % 1019,9 hPa 0,0 l/m 2,9 km/h (1 Bft) S-SO 1,00 h 57,7 klux 395 W/m
02.08.2015 10:00 22,2 C 40,1 C 19,4 C 49 % 1019,8 hPa 0,0 l/m 3,8 km/h (1 Bft) NO 1,00 h 68,4 klux 468 W/m
02.08.2015 11:00 23,6 C 45,8 C 19,7 C 41 % 1019,8 hPa 0,0 l/m 5,2 km/h (1 Bft) O 1,00 h 83,1 klux 568 W/m
02.08.2015 12:00 24,9 C 50,0 C 20,2 C 39 % 1019,8 hPa 0,0 l/m 5,8 km/h (2 Bft) N-NO 1,00 h 90,2 klux 617 W/m
02.08.2015 13:00 25,6 C 50,2 C 20,8 C 36 % 1019,2 hPa 0,0 l/m 8,6 km/h (2 Bft) N-NO 1,07 h 92,3 klux 631 W/m
02.08.2015 14:00 27,4 C 52,5 C 21,5 C 32 % 1018,7 hPa 0,0 l/m 8,6 km/h (2 Bft) N 0,93 h 93,0 klux 636 W/m
02.08.2015 15:00 28,4 C 52,2 C 22,5 C 28 % 1018,2 hPa 0,0 l/m 8,3 km/h (2 Bft) O 1,00 h 87,6 klux 599 W/m
02.08.2015 16:00 28,8 C 48,4 C 23,0 C 27 % 1017,7 hPa 0,0 l/m 7,2 km/h (2 Bft) S-SO 1,00 h 73,0 klux 500 W/m
02.08.2015 17:00 28,2 C 40,3 C 23,3 C 29 % 1017,6 hPa 0,0 l/m 7,6 km/h (2 Bft) O 0,75 h 53,1 klux 363 W/m
02.08.2015 18:00 28,3 C 38,0 C 23,1 C 29 % 1016,7 hPa 0,0 l/m 12,0 km/h (2 Bft) O 1,00 h 47,9 klux 328 W/m
02.08.2015 19:00 27,7 C 33,3 C 23,1 C 31 % 1016,1 hPa 0,0 l/m 14,5 km/h (3 Bft) O 1,00 h 30,2 klux 207 W/m
02.08.2015 20:00 26,0 C 25,7 C 23,0 C 36 % 1015,7 hPa 0,0 l/m 16,0 km/h (3 Bft) O 0,77 h 9,8 klux 67 W/m
02.08.2015 21:00 24,1 C 21,1 C 22,9 C 41 % 1015,8 hPa 0,0 l/m 17,0 km/h (3 Bft) O 0,08 h 564 lux 10 W/m
02.08.2015 22:00 23,4 C 20,0 C 22,6 C 43 % 1015,8 hPa 0,0 l/m 18,5 km/h (3 Bft) O 0,00 h 16 lux 0 W/m
02.08.2015 23:00 21,8 C 18,5 C 22,4 C 47 % 1015,8 hPa 0,0 l/m 15,9 km/h (3 Bft) O 0,00 h 0 lux 0 W/m
Min-Datum _ 31.07.15 31.07.15 30.07.15 02.08.15 27.07.15 - 30.07.15 - - - -
_ Min-Zeit 06:14 06:00 07:50 15:34 12:25 - 17:45 - - - -
Minimum _ 8,2 C 4,8 C 16,6 C 26 % 999,8 hPa - 0,0 km/h (0 Bft) - - - -
Max-Datum _ 02.08.15 02.08.15 02.08.15 27.07.15 31.07.15 29.07.15 29.07.15 - 27.07.15 28.07.15 28.07.15
_ Max-Zeit 16:25 14:50 17:05 06:20 08:35 09:50 12:25 - 14:50 03:00 08:20
Maximum _ 29,3 C 54,2 C 23,3 C 87 % 1021,0 hPa 1,4 l/m 68,4 km/h
NW (8 Bft)
- 0,10 h 200 klux 1368 W/m
Durchschnitt _ 16,9 C 20,8 C 18,6 C 64 % 1011,5 hPa #7,6 l/m 18,2 km/h (3 Bft) SW #55:35 h 39,5 klux 292 W/m